Time,TemperatureF,DewpointF,PressureIn,WindDirection,WindDirectionDegrees,WindSpeedMPH,WindSpeedGustMPH,Humidity,HourlyPrecipIn,Conditions,Clouds,dailyrainin,SoftwareType,DateUTC
2013-01-08 00:00:00,25.2,17.5,30.30,SW,225,0.0,2.2,72,0.00,,,0.02,WUHU216HW,2013-01-08 05:00:00,
2013-01-08 00:03:00,25.4,17.7,30.30,SW,225,0.4,1.1,72,0.00,,,0.00,WUHU216HW,2013-01-08 05:03:00,
2013-01-08 00:04:00,25.4,17.7,30.30,SW,225,0.4,1.1,72,0.00,,,0.00,WUHU216HW,2013-01-08 05:04:00,
2013-01-08 00:09:00,25.4,17.7,30.30,SSE,158,0.7,1.6,72,0.00,,,0.00,WUHU216HW,2013-01-08 05:09:00,
2013-01-08 00:14:00,25.4,17.7,30.30,SW,225,2.0,2.0,72,0.00,,,0.00,WUHU216HW,2013-01-08 05:14:00,
2013-01-08 00:19:00,25.4,18.0,30.30,SSW,203,0.7,2.5,73,0.00,,,0.00,WUHU216HW,2013-01-08 05:19:00,
2013-01-08 00:24:00,25.5,18.4,30.30,South,180,0.0,2.5,74,0.00,,,0.00,WUHU216HW,2013-01-08 05:24:00,
2013-01-08 00:29:00,25.7,18.6,30.30,SW,225,0.2,1.1,74,0.00,,,0.00,WUHU216HW,2013-01-08 05:29:00,
2013-01-08 00:34:00,25.7,18.6,30.30,SSW,203,0.0,1.1,74,0.00,,,0.00,WUHU216HW,2013-01-08 05:34:00,
2013-01-08 00:39:00,25.7,18.6,30.30,SSW,203,0.0,1.1,74,0.00,,,0.00,WUHU216HW,2013-01-08 05:39:00,
2013-01-08 00:44:00,25.7,18.6,30.29,South,180,0.0,0.7,74,0.00,,,0.00,WUHU216HW,2013-01-08 05:44:00,
2013-01-08 00:49:00,25.7,18.6,30.29,SSW,203,0.4,0.4,74,0.00,,,0.00,WUHU216HW,2013-01-08 05:49:00,
2013-01-08 00:54:00,25.7,18.6,30.29,West,270,0.0,0.7,74,0.00,,,0.00,WUHU216HW,2013-01-08 05:54:00,
2013-01-08 00:59:00,25.7,18.6,30.29,SW,225,0.2,0.7,74,0.00,,,0.00,WUHU216HW,2013-01-08 05:59:00,
2013-01-08 01:04:00,25.7,18.6,30.29,WSW,248,0.7,2.5,74,0.00,,,0.00,WUHU216HW,2013-01-08 06:04:00,
2013-01-08 01:09:00,25.7,18.9,30.29,SW,225,0.0,2.5,75,0.00,,,0.00,WUHU216HW,2013-01-08 06:09:00,
2013-01-08 01:14:00,25.7,18.9,30.29,SSW,203,0.4,0.9,75,0.00,,,0.00,WUHU216HW,2013-01-08 06:14:00,
2013-01-08 01:19:00,25.9,19.1,30.29,SW,225,0.4,1.1,75,0.00,,,0.00,WUHU216HW,2013-01-08 06:19:00,
2013-01-08 01:24:00,25.9,19.1,30.29,SW,225,0.2,2.5,75,0.00,,,0.00,WUHU216HW,2013-01-08 06:24:00,
2013-01-08 01:30:00,25.9,19.1,30.29,ESE,113,0.0,2.5,75,0.00,,,0.00,WUHU216HW,2013-01-08 06:30:00,
2013-01-08 01:35:00,25.9,19.1,30.28,SW,225,0.4,0.7,75,0.00,,,0.00,WUHU216HW,2013-01-08 06:35:00,
2013-01-08 01:40:00,25.9,19.1,30.29,SW,225,0.0,0.7,75,0.00,,,0.00,WUHU216HW,2013-01-08 06:40:00,
2013-01-08 01:45:00,25.9,19.1,30.28,SW,225,0.0,0.7,75,0.00,,,0.00,WUHU216HW,2013-01-08 06:45:00,
2013-01-08 01:50:00,25.9,19.1,30.28,SW,225,0.0,0.0,75,0.00,,,0.00,WUHU216HW,2013-01-08 06:50:00,
2013-01-08 01:55:00,25.9,19.1,30.28,SSE,158,0.0,0.2,75,0.00,,,0.00,WUHU216HW,2013-01-08 06:55:00,
2013-01-08 02:00:00,25.9,19.1,30.28,SW,225,0.0,0.4,75,0.00,,,0.00,WUHU216HW,2013-01-08 07:00:00,
2013-01-08 02:05:00,25.9,19.1,30.28,SSW,203,2.2,2.2,75,0.00,,,0.00,WUHU216HW,2013-01-08 07:05:00,
2013-01-08 02:10:00,25.9,19.4,30.28,SW,225,0.2,2.2,76,0.00,,,0.00,WUHU216HW,2013-01-08 07:10:00,
2013-01-08 02:15:00,26.1,19.6,30.27,SW,225,0.0,2.2,76,0.00,,,0.00,WUHU216HW,2013-01-08 07:15:00,
2013-01-08 02:20:00,26.1,19.6,30.28,SSW,203,0.2,0.7,76,0.00,,,0.00,WUHU216HW,2013-01-08 07:20:00,
2013-01-08 02:26:00,26.1,19.6,30.27,SW,225,0.0,0.7,76,0.00,,,0.00,WUHU216HW,2013-01-08 07:26:00,
2013-01-08 02:31:00,25.9,19.4,30.27,WSW,248,0.2,0.4,76,0.00,,,0.00,WUHU216HW,2013-01-08 07:31:00,
2013-01-08 02:36:00,25.9,19.4,30.27,WSW,248,0.0,0.4,76,0.00,,,0.00,WUHU216HW,2013-01-08 07:36:00,
2013-01-08 02:41:00,25.9,19.4,30.27,SSE,158,0.4,1.8,76,0.00,,,0.00,WUHU216HW,2013-01-08 07:41:00,
2013-01-08 02:46:00,25.9,19.4,30.27,WSW,248,0.0,1.8,76,0.00,,,0.00,WUHU216HW,2013-01-08 07:46:00,
2013-01-08 02:51:00,26.1,19.6,30.27,SW,225,1.1,1.8,76,0.00,,,0.00,WUHU216HW,2013-01-08 07:51:00,
2013-01-08 02:56:00,25.9,19.4,30.27,West,270,0.4,1.1,76,0.00,,,0.00,WUHU216HW,2013-01-08 07:56:00,
2013-01-08 03:01:00,26.1,19.6,30.26,ESE,113,0.2,1.6,76,0.00,,,0.00,WUHU216HW,2013-01-08 08:01:00,
2013-01-08 03:07:00,26.1,19.3,30.26,SW,225,0.4,5.4,75,0.00,,,0.00,WUHU216HW,2013-01-08 08:07:00,
2013-01-08 03:12:00,26.3,19.5,30.26,NW,315,0.9,5.4,75,0.00,,,0.00,WUHU216HW,2013-01-08 08:12:00,
2013-01-08 03:17:00,26.4,19.6,30.26,SE,135,0.4,2.5,75,0.00,,,0.00,WUHU216HW,2013-01-08 08:17:00,
2013-01-08 03:22:00,26.8,20.0,30.26,WSW,248,0.4,3.8,75,0.00,,,0.00,WUHU216HW,2013-01-08 08:22:00,
2013-01-08 03:27:00,27.0,20.2,30.26,West,270,1.6,3.8,75,0.00,,,0.00,WUHU216HW,2013-01-08 08:27:00,
2013-01-08 03:32:00,27.3,20.5,30.26,WSW,248,1.1,4.0,75,0.00,,,0.00,WUHU216HW,2013-01-08 08:32:00,
2013-01-08 03:37:00,27.5,21.0,30.26,SW,225,0.0,4.0,76,0.00,,,0.00,WUHU216HW,2013-01-08 08:37:00,
2013-01-08 03:42:00,27.9,21.3,30.26,SSW,203,1.8,3.8,76,0.00,,,0.00,WUHU216HW,2013-01-08 08:42:00,
2013-01-08 03:47:00,27.9,21.0,30.26,South,180,1.3,4.0,75,0.00,,,0.00,WUHU216HW,2013-01-08 08:47:00,
2013-01-08 03:52:00,27.9,21.0,30.26,NW,315,0.4,4.0,75,0.00,,,0.00,WUHU216HW,2013-01-08 08:52:00,
2013-01-08 03:58:00,27.9,21.0,30.26,SSE,158,1.1,2.9,75,0.00,,,0.00,WUHU216HW,2013-01-08 08:58:00,
2013-01-08 04:03:00,27.9,21.0,30.26,SSE,158,2.0,2.0,75,0.00,,,0.00,WUHU216HW,2013-01-08 09:03:00,
2013-01-08 04:08:00,27.9,21.0,30.26,South,180,0.4,4.5,75,0.00,,,0.00,WUHU216HW,2013-01-08 09:08:00,
2013-01-08 04:13:00,27.9,21.0,30.26,SE,135,0.2,4.7,75,0.00,,,0.00,WUHU216HW,2013-01-08 09:13:00,
2013-01-08 04:18:00,28.1,21.2,30.26,SSW,203,1.6,4.7,75,0.00,,,0.00,WUHU216HW,2013-01-08 09:18:00,
2013-01-08 04:23:00,28.1,21.2,30.27,West,270,4.7,4.7,75,0.00,,,0.00,WUHU216HW,2013-01-08 09:23:00,
2013-01-08 04:28:00,28.2,21.3,30.27,SW,225,0.0,6.3,75,0.00,,,0.00,WUHU216HW,2013-01-08 09:28:00,
2013-01-08 04:33:00,28.2,21.0,30.27,South,180,1.3,6.3,74,0.00,,,0.00,WUHU216HW,2013-01-08 09:33:00,
2013-01-08 04:39:00,28.4,21.2,30.27,SSW,203,5.8,5.8,74,0.00,,,0.00,WUHU216HW,2013-01-08 09:39:00,
2013-01-08 04:44:00,28.4,21.2,30.27,SE,135,2.2,5.8,74,0.00,,,0.00,WUHU216HW,2013-01-08 09:44:00,
2013-01-08 04:49:00,28.6,21.4,30.27,SSE,158,4.0,5.8,74,0.00,,,0.00,WUHU216HW,2013-01-08 09:49:00,
2013-01-08 04:54:00,28.6,21.4,30.27,West,270,2.5,8.1,74,0.00,,,0.00,WUHU216HW,2013-01-08 09:54:00,
2013-01-08 04:59:00,28.6,21.4,30.27,SW,225,2.0,8.1,74,0.00,,,0.00,WUHU216HW,2013-01-08 09:59:00,
2013-01-08 05:04:00,28.6,21.4,30.28,WSW,248,4.0,4.7,74,0.00,,,0.00,WUHU216HW,2013-01-08 10:04:00,
2013-01-08 05:09:00,28.6,21.4,30.28,SW,225,3.8,4.7,74,0.00,,,0.00,WUHU216HW,2013-01-08 10:09:00,
2013-01-08 05:14:00,28.6,21.4,30.27,West,270,3.4,4.7,74,0.00,,,0.00,WUHU216HW,2013-01-08 10:14:00,
2013-01-08 05:19:00,28.6,21.4,30.27,SSW,203,3.6,6.3,74,0.00,,,0.00,WUHU216HW,2013-01-08 10:19:00,
2013-01-08 05:25:00,28.6,21.4,30.27,SSE,158,2.5,6.3,74,0.00,,,0.00,WUHU216HW,2013-01-08 10:25:00,
2013-01-08 05:30:00,28.6,21.4,30.27,SW,225,4.7,6.3,74,0.00,,,0.00,WUHU216HW,2013-01-08 10:30:00,
2013-01-08 05:35:00,28.6,21.4,30.27,South,180,2.9,8.3,74,0.00,,,0.00,WUHU216HW,2013-01-08 10:35:00,
2013-01-08 05:40:00,28.6,21.4,30.27,SE,135,2.5,8.3,74,0.00,,,0.00,WUHU216HW,2013-01-08 10:40:00,
2013-01-08 05:45:00,28.8,21.6,30.27,SSW,203,2.2,6.9,74,0.00,,,0.00,WUHU216HW,2013-01-08 10:45:00,
2013-01-08 05:50:00,28.8,21.6,30.27,SSE,158,0.7,5.8,74,0.00,,,0.00,WUHU216HW,2013-01-08 10:50:00,
2013-01-08 05:55:00,28.8,21.6,30.27,South,180,3.1,5.8,74,0.00,,,0.00,WUHU216HW,2013-01-08 10:55:00,
2013-01-08 06:01:00,28.8,21.6,30.26,South,180,0.4,5.4,74,0.00,,,0.00,WUHU216HW,2013-01-08 11:01:00,
2013-01-08 06:06:00,28.8,21.6,30.26,NW,315,1.6,5.4,74,0.00,,,0.00,WUHU216HW,2013-01-08 11:06:00,
2013-01-08 06:11:00,28.8,21.6,30.26,SSW,203,2.9,7.8,74,0.00,,,0.00,WUHU216HW,2013-01-08 11:11:00,
2013-01-08 06:16:00,29.0,21.8,30.27,SW,225,1.3,9.2,74,0.00,,,0.00,WUHU216HW,2013-01-08 11:16:00,
2013-01-08 06:21:00,29.0,21.8,30.27,South,180,3.8,9.2,74,0.00,,,0.00,WUHU216HW,2013-01-08 11:21:00,
2013-01-08 06:26:00,29.1,21.9,30.28,SSW,203,8.1,8.1,74,0.00,,,0.00,WUHU216HW,2013-01-08 11:26:00,
2013-01-08 06:31:00,29.1,21.9,30.28,SSW,203,2.0,8.1,74,0.00,,,0.00,WUHU216HW,2013-01-08 11:31:00,
2013-01-08 06:36:00,29.1,21.9,30.28,SSW,203,4.3,8.1,74,0.00,,,0.00,WUHU216HW,2013-01-08 11:36:00,
2013-01-08 06:41:00,29.1,21.9,30.28,SSW,203,8.7,8.7,74,0.00,,,0.00,WUHU216HW,2013-01-08 11:41:00,
2013-01-08 06:47:00,29.1,21.9,30.28,SSW,203,1.3,8.7,74,0.00,,,0.00,WUHU216HW,2013-01-08 11:47:00,
2013-01-08 06:52:00,29.3,22.1,30.28,WSW,248,4.7,8.7,74,0.00,,,0.00,WUHU216HW,2013-01-08 11:52:00,
2013-01-08 06:57:00,29.3,22.1,30.28,West,270,1.1,6.3,74,0.00,,,0.00,WUHU216HW,2013-01-08 11:57:00,
2013-01-08 07:02:00,29.3,22.1,30.29,SSW,203,1.6,4.0,74,0.00,,,0.00,WUHU216HW,2013-01-08 12:02:00,
2013-01-08 07:07:00,29.1,21.9,30.29,SSE,158,2.9,5.4,74,0.00,,,0.00,WUHU216HW,2013-01-08 12:07:00,
2013-01-08 07:12:00,29.0,21.8,30.29,SW,225,2.2,5.4,74,0.00,,,0.00,WUHU216HW,2013-01-08 12:12:00,
2013-01-08 07:17:00,29.0,21.8,30.29,South,180,3.8,5.4,74,0.00,,,0.00,WUHU216HW,2013-01-08 12:17:00,
2013-01-08 07:22:00,29.0,21.8,30.29,SSW,203,2.7,4.7,74,0.00,,,0.00,WUHU216HW,2013-01-08 12:22:00,
2013-01-08 07:27:00,28.8,21.6,30.30,WSW,248,2.5,3.8,74,0.00,,,0.00,WUHU216HW,2013-01-08 12:27:00,
2013-01-08 07:32:00,28.8,21.6,30.30,East,90,4.0,4.0,74,0.00,,,0.00,WUHU216HW,2013-01-08 12:32:00,
2013-01-08 07:38:00,28.6,21.4,30.30,South,180,2.5,5.1,74,0.00,,,0.00,WUHU216HW,2013-01-08 12:38:00,
2013-01-08 07:43:00,28.6,21.4,30.30,SSW,203,4.7,5.6,74,0.00,,,0.00,WUHU216HW,2013-01-08 12:43:00,
2013-01-08 07:48:00,28.6,21.4,30.30,WSW,248,2.7,7.8,74,0.00,,,0.00,WUHU216HW,2013-01-08 12:48:00,
2013-01-08 07:53:00,28.6,21.4,30.30,WSW,248,2.0,7.8,74,0.00,,,0.00,WUHU216HW,2013-01-08 12:53:00,
2013-01-08 07:58:00,28.6,21.7,30.30,South,180,6.9,6.9,75,0.00,,,0.00,WUHU216HW,2013-01-08 12:58:00,
2013-01-08 08:03:00,28.6,21.4,30.31,NW,315,1.1,6.9,74,0.00,,,0.00,WUHU216HW,2013-01-08 13:03:00,
2013-01-08 08:08:00,28.6,21.7,30.31,WSW,248,1.3,4.9,75,0.00,,,0.00,WUHU216HW,2013-01-08 13:08:00,
2013-01-08 08:13:00,28.8,21.9,30.31,WSW,248,2.5,6.3,75,0.00,,,0.00,WUHU216HW,2013-01-08 13:13:00,
2013-01-08 08:18:00,28.8,21.9,30.31,SSW,203,5.4,6.3,75,0.00,,,0.00,WUHU216HW,2013-01-08 13:18:00,
2013-01-08 08:23:00,29.0,22.1,30.31,SE,135,1.3,6.3,75,0.00,,,0.00,WUHU216HW,2013-01-08 13:23:00,
2013-01-08 08:28:00,29.0,22.1,30.31,SSE,158,0.4,6.3,75,0.00,,,0.00,WUHU216HW,2013-01-08 13:28:00,
2013-01-08 08:33:00,29.1,21.9,30.31,WSW,248,1.1,5.1,74,0.00,,,0.00,WUHU216HW,2013-01-08 13:33:00,
2013-01-08 08:38:00,29.1,21.9,30.31,SW,225,0.9,5.1,74,0.00,,,0.00,WUHU216HW,2013-01-08 13:38:00,
2013-01-08 08:43:00,29.3,22.1,30.31,WSW,248,5.4,5.4,74,0.00,,,0.00,WUHU216HW,2013-01-08 13:43:00,
2013-01-08 08:48:00,29.3,22.1,30.31,South,180,3.4,7.2,74,0.00,,,0.00,WUHU216HW,2013-01-08 13:48:00,
2013-01-08 08:53:00,29.5,22.3,30.31,SSW,203,3.4,7.2,74,0.00,,,0.00,WUHU216HW,2013-01-08 13:53:00,
2013-01-08 08:58:00,29.7,22.5,30.31,West,270,3.4,4.7,74,0.00,,,0.00,WUHU216HW,2013-01-08 13:58:00,
2013-01-08 09:03:00,29.9,22.7,30.31,WNW,293,2.9,5.1,74,0.00,,,0.00,WUHU216HW,2013-01-08 14:03:00,
2013-01-08 09:09:00,30.0,22.8,30.31,SW,225,3.4,6.9,74,0.00,,,0.00,WUHU216HW,2013-01-08 14:09:00,
2013-01-08 09:13:00,30.0,22.8,30.31,North,0,3.4,6.9,74,0.00,,,0.00,WUHU216HW,2013-01-08 14:13:00,
2013-01-08 09:18:00,30.4,22.8,30.31,SW,225,5.8,6.9,73,0.00,,,0.00,WUHU216HW,2013-01-08 14:18:00,
2013-01-08 09:24:00,30.6,23.0,30.31,WSW,248,4.5,6.9,73,0.00,,,0.00,WUHU216HW,2013-01-08 14:24:00,
2013-01-08 09:29:00,30.8,23.2,30.31,West,270,2.2,6.3,73,0.00,,,0.00,WUHU216HW,2013-01-08 14:29:00,
2013-01-08 09:34:00,30.9,23.3,30.31,SW,225,5.8,6.3,73,0.00,,,0.00,WUHU216HW,2013-01-08 14:34:00,
2013-01-08 09:39:00,31.3,23.7,30.31,South,180,1.6,8.1,73,0.00,,,0.00,WUHU216HW,2013-01-08 14:39:00,
2013-01-08 09:44:00,31.5,23.9,30.31,SSW,203,2.5,8.1,73,0.00,,,0.00,WUHU216HW,2013-01-08 14:44:00,
2013-01-08 09:49:00,31.8,23.9,30.31,SE,135,1.8,6.0,72,0.00,,,0.00,WUHU216HW,2013-01-08 14:49:00,
2013-01-08 09:54:00,32.0,24.0,30.31,SSW,203,5.4,6.9,72,0.00,,,0.00,WUHU216HW,2013-01-08 14:54:00,
2013-01-08 09:59:00,32.2,24.2,30.31,South,180,3.8,6.9,72,0.00,,,0.00,WUHU216HW,2013-01-08 14:59:00,
2013-01-08 10:04:00,32.4,24.8,30.31,South,180,4.0,6.9,73,0.00,,,0.00,WUHU216HW,2013-01-08 15:04:00,
2013-01-08 10:09:00,32.6,24.6,30.31,West,270,1.8,6.9,72,0.00,,,0.00,WUHU216HW,2013-01-08 15:09:00,
2013-01-08 10:14:00,32.7,24.7,30.31,West,270,6.0,6.9,72,0.00,,,0.00,WUHU216HW,2013-01-08 15:14:00,
2013-01-08 10:19:00,32.9,24.9,30.31,WSW,248,5.8,7.4,72,0.00,,,0.00,WUHU216HW,2013-01-08 15:19:00,
2013-01-08 10:24:00,32.9,24.9,30.31,SSE,158,3.4,7.4,72,0.00,,,0.00,WUHU216HW,2013-01-08 15:24:00,
2013-01-08 10:29:00,33.1,25.1,30.31,SSE,158,0.7,5.8,72,0.00,,,0.00,WUHU216HW,2013-01-08 15:29:00,
2013-01-08 10:34:00,33.3,25.3,30.31,South,180,1.8,7.6,72,0.00,,,0.00,WUHU216HW,2013-01-08 15:34:00,
2013-01-08 10:39:00,33.3,25.3,30.31,SW,225,3.4,7.6,72,0.00,,,0.00,WUHU216HW,2013-01-08 15:39:00,
2013-01-08 10:44:00,33.5,25.5,30.31,WSW,248,2.0,7.6,72,0.00,,,0.00,WUHU216HW,2013-01-08 15:44:00,
2013-01-08 10:49:00,33.6,25.6,30.31,South,180,4.3,4.5,72,0.00,,,0.00,WUHU216HW,2013-01-08 15:49:00,
2013-01-08 10:54:00,33.8,25.8,30.31,SSW,203,2.5,6.7,72,0.00,,,0.00,WUHU216HW,2013-01-08 15:54:00,
2013-01-08 10:59:00,34.0,26.0,30.30,WSW,248,4.0,6.7,72,0.00,,,0.00,WUHU216HW,2013-01-08 15:59:00,
2013-01-08 11:04:00,34.4,26.0,30.30,WSW,248,2.5,6.5,71,0.00,,,0.00,WUHU216HW,2013-01-08 16:04:00,
2013-01-08 11:09:00,34.4,26.0,30.29,SSW,203,5.1,8.5,71,0.00,,,0.00,WUHU216HW,2013-01-08 16:09:00,
2013-01-08 11:14:00,34.5,26.1,30.29,SW,225,4.5,8.5,71,0.00,,,0.00,WUHU216HW,2013-01-08 16:14:00,
2013-01-08 11:19:00,34.7,26.3,30.29,West,270,3.1,7.6,71,0.00,,,0.00,WUHU216HW,2013-01-08 16:19:00,
2013-01-08 11:24:00,34.7,26.3,30.29,SW,225,2.2,6.5,71,0.00,,,0.00,WUHU216HW,2013-01-08 16:24:00,
2013-01-08 11:29:00,34.9,26.5,30.29,WSW,248,5.6,6.5,71,0.00,,,0.00,WUHU216HW,2013-01-08 16:29:00,
2013-01-08 11:34:00,35.1,26.7,30.28,SSE,158,0.7,5.6,71,0.00,,,0.00,WUHU216HW,2013-01-08 16:34:00,
2013-01-08 11:39:00,35.1,26.7,30.28,South,180,2.0,5.6,71,0.00,,,0.00,WUHU216HW,2013-01-08 16:39:00,
2013-01-08 11:44:00,35.1,26.7,30.28,West,270,1.6,4.7,71,0.00,,,0.00,WUHU216HW,2013-01-08 16:44:00,
2013-01-08 11:49:00,35.3,26.9,30.28,West,270,1.3,5.8,71,0.00,,,0.00,WUHU216HW,2013-01-08 16:49:00,
2013-01-08 11:54:00,35.4,26.7,30.28,SSW,203,2.7,5.8,70,0.00,,,0.00,WUHU216HW,2013-01-08 16:54:00,
2013-01-08 11:59:00,35.6,26.8,30.28,WSW,248,1.3,4.0,70,0.00,,,0.00,WUHU216HW,2013-01-08 16:59:00,
2013-01-08 12:04:00,35.6,26.8,30.28,SW,225,2.5,4.0,70,0.00,,,0.00,WUHU216HW,2013-01-08 17:04:00,
2013-01-08 12:09:00,35.8,27.0,30.28,SW,225,1.6,4.0,70,0.00,,,0.00,WUHU216HW,2013-01-08 17:09:00,
2013-01-08 12:14:00,35.8,27.0,30.28,SSE,158,3.4,4.5,70,0.00,,,0.00,WUHU216HW,2013-01-08 17:14:00,
2013-01-08 12:19:00,36.0,27.2,30.28,SSE,158,2.0,4.5,70,0.00,,,0.00,WUHU216HW,2013-01-08 17:19:00,
2013-01-08 12:24:00,36.2,27.4,30.28,WSW,248,2.5,5.6,70,0.00,,,0.00,WUHU216HW,2013-01-08 17:24:00,
2013-01-08 12:29:00,36.3,27.5,30.28,SW,225,0.9,5.6,70,0.00,,,0.00,WUHU216HW,2013-01-08 17:29:00,
2013-01-08 12:34:00,36.5,27.4,30.28,SSE,158,2.5,4.7,69,0.00,,,0.00,WUHU216HW,2013-01-08 17:34:00,
2013-01-08 12:39:00,36.5,27.4,30.28,SSW,203,4.0,5.1,69,0.00,,,0.00,WUHU216HW,2013-01-08 17:39:00,
2013-01-08 12:44:00,36.7,27.6,30.27,SSW,203,2.5,6.0,69,0.00,,,0.00,WUHU216HW,2013-01-08 17:44:00,
2013-01-08 12:49:00,36.9,27.8,30.27,ESE,113,1.8,6.0,69,0.00,,,0.00,WUHU216HW,2013-01-08 17:49:00,
2013-01-08 12:54:00,37.1,27.6,30.27,SW,225,1.6,5.4,68,0.00,,,0.00,WUHU216HW,2013-01-08 17:54:00,
2013-01-08 12:59:00,37.2,27.7,30.27,SW,225,4.9,8.1,68,0.00,,,0.00,WUHU216HW,2013-01-08 17:59:00,
2013-01-08 13:04:00,37.4,27.9,30.26,South,180,5.4,8.1,68,0.00,,,0.00,WUHU216HW,2013-01-08 18:04:00,
2013-01-08 13:09:00,37.6,27.7,30.27,SSW,203,1.6,6.3,67,0.00,,,0.00,WUHU216HW,2013-01-08 18:09:00,
2013-01-08 13:14:00,37.8,27.9,30.27,South,180,1.8,6.3,67,0.00,,,0.00,WUHU216HW,2013-01-08 18:14:00,
2013-01-08 13:19:00,37.8,27.9,30.27,South,180,2.5,5.4,67,0.00,,,0.00,WUHU216HW,2013-01-08 18:19:00,
2013-01-08 13:24:00,38.0,28.1,30.27,South,180,4.0,4.0,67,0.00,,,0.00,WUHU216HW,2013-01-08 18:24:00,
2013-01-08 13:29:00,38.0,28.1,30.27,South,180,1.1,5.4,67,0.00,,,0.00,WUHU216HW,2013-01-08 18:29:00,
2013-01-08 13:34:00,38.0,28.1,30.26,South,180,3.1,5.4,67,0.00,,,0.00,WUHU216HW,2013-01-08 18:34:00,
2013-01-08 13:39:00,38.0,28.1,30.26,SSE,158,1.8,5.1,67,0.00,,,0.00,WUHU216HW,2013-01-08 18:39:00,
2013-01-08 13:44:00,38.1,28.2,30.27,SSW,203,2.9,5.1,67,0.00,,,0.00,WUHU216HW,2013-01-08 18:44:00,
2013-01-08 13:49:00,38.3,28.4,30.26,WSW,248,1.8,4.7,67,0.00,,,0.00,WUHU216HW,2013-01-08 18:49:00,
2013-01-08 13:54:00,38.3,28.4,30.27,SE,135,1.3,3.4,67,0.00,,,0.00,WUHU216HW,2013-01-08 18:54:00,
2013-01-08 13:59:00,38.7,28.8,30.27,WSW,248,1.6,2.5,67,0.00,,,0.00,WUHU216HW,2013-01-08 18:59:00,
2013-01-08 14:04:00,38.7,28.4,30.27,SSW,203,1.8,4.7,66,0.00,,,0.00,WUHU216HW,2013-01-08 19:04:00,
2013-01-08 14:09:00,38.7,28.4,30.27,SSE,158,2.0,4.7,66,0.00,,,0.00,WUHU216HW,2013-01-08 19:09:00,
2013-01-08 14:14:00,38.7,28.4,30.27,South,180,2.0,4.7,66,0.00,,,0.00,WUHU216HW,2013-01-08 19:14:00,
2013-01-08 14:19:00,38.9,28.6,30.27,South,180,2.0,3.4,66,0.00,,,0.00,WUHU216HW,2013-01-08 19:19:00,
2013-01-08 14:24:00,39.0,28.7,30.27,WSW,248,2.0,5.4,66,0.00,,,0.00,WUHU216HW,2013-01-08 19:24:00,
2013-01-08 14:29:00,39.2,28.5,30.27,SW,225,1.8,5.4,65,0.00,,,0.00,WUHU216HW,2013-01-08 19:29:00,
2013-01-08 14:34:00,39.4,28.7,30.27,WSW,248,3.4,3.4,65,0.00,,,0.00,WUHU216HW,2013-01-08 19:34:00,
2013-01-08 14:39:00,39.6,28.1,30.28,WSW,248,2.2,6.3,63,0.00,,,0.00,WUHU216HW,2013-01-08 19:39:00,
2013-01-08 14:44:00,39.8,28.3,30.27,SSW,203,0.4,6.3,63,0.00,,,0.00,WUHU216HW,2013-01-08 19:44:00,
2013-01-08 14:49:00,39.9,28.4,30.28,ESE,113,0.4,4.0,63,0.00,,,0.00,WUHU216HW,2013-01-08 19:49:00,
2013-01-08 14:54:00,39.9,28.4,30.28,SSE,158,2.7,4.0,63,0.00,,,0.00,WUHU216HW,2013-01-08 19:54:00,
2013-01-08 14:59:00,40.1,28.6,30.27,ESE,113,2.0,4.0,63,0.00,,,0.00,WUHU216HW,2013-01-08 19:59:00,
2013-01-08 15:05:00,40.1,28.6,30.27,WSW,248,3.4,5.6,63,0.00,,,0.00,WUHU216HW,2013-01-08 20:05:00,
2013-01-08 15:10:00,40.1,28.6,30.27,ESE,113,1.6,5.6,63,0.00,,,0.00,WUHU216HW,2013-01-08 20:10:00,
2013-01-08 15:15:00,40.1,28.6,30.27,SSW,203,2.5,5.8,63,0.00,,,0.00,WUHU216HW,2013-01-08 20:15:00,
2013-01-08 15:20:00,40.1,28.2,30.27,South,180,2.0,6.7,62,0.00,,,0.00,WUHU216HW,2013-01-08 20:20:00,
2013-01-08 15:25:00,40.1,28.2,30.27,South,180,1.6,6.7,62,0.00,,,0.00,WUHU216HW,2013-01-08 20:25:00,
2013-01-08 15:30:00,40.1,28.2,30.27,SSW,203,1.8,5.1,62,0.00,,,0.00,WUHU216HW,2013-01-08 20:30:00,
2013-01-08 15:35:00,40.1,28.2,30.27,South,180,0.4,5.1,62,0.00,,,0.00,WUHU216HW,2013-01-08 20:35:00,
2013-01-08 15:40:00,40.1,27.8,30.27,South,180,2.7,5.8,61,0.00,,,0.00,WUHU216HW,2013-01-08 20:40:00,
2013-01-08 15:45:00,40.1,28.2,30.27,SSW,203,1.1,5.8,62,0.00,,,0.00,WUHU216HW,2013-01-08 20:45:00,
2013-01-08 15:50:00,40.1,28.2,30.28,West,270,1.3,4.0,62,0.00,,,0.00,WUHU216HW,2013-01-08 20:50:00,
2013-01-08 15:55:00,40.1,28.2,30.28,SSE,158,1.6,4.9,62,0.00,,,0.00,WUHU216HW,2013-01-08 20:55:00,
2013-01-08 16:00:00,39.9,28.0,30.27,SE,135,0.9,4.9,62,0.00,,,0.00,WUHU216HW,2013-01-08 21:00:00,
2013-01-08 16:04:00,39.9,28.0,30.27,SW,225,1.1,4.0,62,0.00,,,0.00,WUHU216HW,2013-01-08 21:04:00,
2013-01-08 16:09:00,39.8,27.9,30.27,SW,225,0.0,2.5,62,0.00,,,0.00,WUHU216HW,2013-01-08 21:09:00,
2013-01-08 16:14:00,39.8,27.9,30.28,SSE,158,0.4,2.9,62,0.00,,,0.00,WUHU216HW,2013-01-08 21:14:00,
2013-01-08 16:19:00,39.6,28.1,30.27,SSE,158,1.1,2.9,63,0.00,,,0.00,WUHU216HW,2013-01-08 21:19:00,
2013-01-08 16:24:00,39.4,27.9,30.28,SSW,203,2.2,3.4,63,0.00,,,0.00,WUHU216HW,2013-01-08 21:24:00,
2013-01-08 16:29:00,39.4,27.9,30.28,West,270,1.8,4.0,63,0.00,,,0.00,WUHU216HW,2013-01-08 21:29:00,
2013-01-08 16:34:00,39.2,27.3,30.28,SSW,203,0.9,4.3,62,0.00,,,0.00,WUHU216HW,2013-01-08 21:34:00,
2013-01-08 16:39:00,39.2,27.7,30.28,SSW,203,1.8,4.5,63,0.00,,,0.00,WUHU216HW,2013-01-08 21:39:00,
2013-01-08 16:44:00,39.0,27.5,30.28,SSW,203,1.3,4.5,63,0.00,,,0.00,WUHU216HW,2013-01-08 21:44:00,
2013-01-08 16:49:00,39.0,27.5,30.28,SSW,203,1.3,4.5,63,0.00,,,0.00,WUHU216HW,2013-01-08 21:49:00,
2013-01-08 16:54:00,38.9,27.4,30.28,South,180,2.9,4.0,63,0.00,,,0.00,WUHU216HW,2013-01-08 21:54:00,
2013-01-08 17:00:00,38.7,27.3,30.28,SSW,203,1.8,3.8,63,0.00,,,0.00,WUHU216HW,2013-01-08 22:00:00,
2013-01-08 17:05:00,38.7,27.3,30.28,SSW,203,3.1,3.1,63,0.00,,,0.00,WUHU216HW,2013-01-08 22:05:00,
2013-01-08 17:10:00,38.5,27.1,30.28,SSW,203,1.6,4.0,63,0.00,,,0.00,WUHU216HW,2013-01-08 22:10:00,
2013-01-08 17:15:00,38.3,26.9,30.28,SSW,203,1.3,4.0,63,0.00,,,0.00,WUHU216HW,2013-01-08 22:15:00,
2013-01-08 17:20:00,38.1,26.7,30.28,WSW,248,2.9,3.1,63,0.00,,,0.00,WUHU216HW,2013-01-08 22:20:00,
2013-01-08 17:25:00,38.0,27.0,30.28,SW,225,1.8,2.9,64,0.00,,,0.00,WUHU216HW,2013-01-08 22:25:00,
2013-01-08 17:30:00,37.8,26.4,30.28,SW,225,0.4,2.9,63,0.00,,,0.00,WUHU216HW,2013-01-08 22:30:00,
2013-01-08 17:35:00,37.6,26.2,30.28,SSW,203,0.7,2.0,63,0.00,,,0.00,WUHU216HW,2013-01-08 22:35:00,
2013-01-08 17:40:00,37.2,25.8,30.29,SW,225,2.7,2.7,63,0.00,,,0.00,WUHU216HW,2013-01-08 22:40:00,
2013-01-08 17:45:00,37.2,25.8,30.29,SSW,203,0.4,2.7,63,0.00,,,0.00,WUHU216HW,2013-01-08 22:45:00,
2013-01-08 17:50:00,37.1,25.7,30.29,SSW,203,0.9,2.5,63,0.00,,,0.00,WUHU216HW,2013-01-08 22:50:00,
2013-01-08 17:55:00,36.9,25.9,30.29,WSW,248,1.8,2.2,64,0.00,,,0.00,WUHU216HW,2013-01-08 22:55:00,
2013-01-08 18:00:00,36.7,25.7,30.30,SSW,203,0.7,2.2,64,0.00,,,0.00,WUHU216HW,2013-01-08 23:00:00,
2013-01-08 18:05:00,36.5,25.5,30.29,SSE,158,0.9,2.2,64,0.00,,,0.00,WUHU216HW,2013-01-08 23:05:00,
2013-01-08 18:11:00,36.5,25.5,30.30,SSW,203,1.1,1.3,64,0.00,,,0.00,WUHU216HW,2013-01-08 23:11:00,
2013-01-08 18:16:00,36.2,25.3,30.29,SE,135,1.1,1.3,64,0.00,,,0.00,WUHU216HW,2013-01-08 23:16:00,
2013-01-08 18:21:00,36.2,25.3,30.30,SE,135,0.9,1.1,64,0.00,,,0.00,WUHU216HW,2013-01-08 23:21:00,
2013-01-08 18:26:00,35.8,25.3,30.30,SE,135,1.3,1.3,65,0.00,,,0.00,WUHU216HW,2013-01-08 23:26:00,
2013-01-08 18:31:00,35.8,25.3,30.30,SE,135,1.1,1.3,65,0.00,,,0.00,WUHU216HW,2013-01-08 23:31:00,
2013-01-08 18:36:00,35.6,25.1,30.30,SE,135,1.1,1.6,65,0.00,,,0.00,WUHU216HW,2013-01-08 23:36:00,
2013-01-08 18:41:00,35.4,24.9,30.30,SSE,158,0.0,1.6,65,0.00,,,0.00,WUHU216HW,2013-01-08 23:41:00,
2013-01-08 18:46:00,35.3,24.8,30.31,SSE,158,0.0,1.1,65,0.00,,,0.00,WUHU216HW,2013-01-08 23:46:00,
2013-01-08 18:51:00,35.3,25.1,30.31,WSW,248,0.2,0.9,66,0.00,,,0.00,WUHU216HW,2013-01-08 23:51:00,
2013-01-08 18:56:00,35.3,25.1,30.31,SSE,158,1.3,1.8,66,0.00,,,0.00,WUHU216HW,2013-01-08 23:56:00,
2013-01-08 19:01:00,35.3,25.1,30.31,SE,135,1.8,2.5,66,0.00,,,0.00,WUHU216HW,2013-01-09 00:01:00,
2013-01-08 19:06:00,35.1,25.0,30.31,South,180,1.1,3.4,66,0.00,,,0.00,WUHU216HW,2013-01-09 00:06:00,
2013-01-08 19:11:00,35.1,25.0,30.31,WSW,248,2.5,3.4,66,0.00,,,0.00,WUHU216HW,2013-01-09 00:11:00,
2013-01-08 19:17:00,35.1,25.0,30.31,ESE,113,0.4,2.5,66,0.00,,,0.00,WUHU216HW,2013-01-09 00:17:00,
2013-01-08 19:22:00,35.1,25.0,30.30,ESE,113,0.4,2.0,66,0.00,,,0.00,WUHU216HW,2013-01-09 00:22:00,
2013-01-08 19:27:00,35.1,25.0,30.29,SSW,203,0.9,3.1,66,0.00,,,0.00,WUHU216HW,2013-01-09 00:27:00,
2013-01-08 19:32:00,35.1,25.0,30.30,SW,225,0.7,3.1,66,0.00,,,0.00,WUHU216HW,2013-01-09 00:32:00,
2013-01-08 19:37:00,35.1,25.0,30.30,West,270,0.2,2.0,66,0.00,,,0.00,WUHU216HW,2013-01-09 00:37:00,
2013-01-08 19:42:00,34.9,24.8,30.30,SW,225,0.4,1.1,66,0.00,,,0.00,WUHU216HW,2013-01-09 00:42:00,
2013-01-08 19:47:00,34.9,24.8,30.30,South,180,1.1,1.1,66,0.00,,,0.00,WUHU216HW,2013-01-09 00:47:00,
2013-01-08 19:52:00,34.7,24.9,30.30,SSE,158,0.4,1.3,67,0.00,,,0.00,WUHU216HW,2013-01-09 00:52:00,
2013-01-08 19:57:00,34.7,24.9,30.31,SSW,203,0.7,2.2,67,0.00,,,0.00,WUHU216HW,2013-01-09 00:57:00,
2013-01-08 20:02:00,34.7,24.9,30.31,WSW,248,1.3,2.2,67,0.00,,,0.00,WUHU216HW,2013-01-09 01:02:00,
2013-01-08 20:07:00,34.9,25.1,30.31,South,180,0.0,2.2,67,0.00,,,0.00,WUHU216HW,2013-01-09 01:07:00,
2013-01-08 20:13:00,34.9,25.1,30.31,SSW,203,0.4,1.8,67,0.00,,,0.00,WUHU216HW,2013-01-09 01:13:00,
2013-01-08 20:18:00,34.9,25.1,30.31,South,180,0.9,2.7,67,0.00,,,0.00,WUHU216HW,2013-01-09 01:18:00,
2013-01-08 20:23:00,35.1,25.3,30.31,SSW,203,1.8,3.4,67,0.00,,,0.00,WUHU216HW,2013-01-09 01:23:00,
2013-01-08 20:28:00,35.1,25.3,30.31,WSW,248,1.1,3.4,67,0.00,,,0.00,WUHU216HW,2013-01-09 01:28:00,
2013-01-08 20:33:00,35.3,25.5,30.30,SSW,203,0.7,3.4,67,0.00,,,0.00,WUHU216HW,2013-01-09 01:33:00,
2013-01-08 20:38:00,35.3,25.5,30.30,SW,225,0.9,2.5,67,0.00,,,0.00,WUHU216HW,2013-01-09 01:38:00,
2013-01-08 20:43:00,35.3,25.5,30.30,SE,135,0.7,3.4,67,0.00,,,0.00,WUHU216HW,2013-01-09 01:43:00,
2013-01-08 20:48:00,35.3,25.5,30.31,WSW,248,1.1,3.4,67,0.00,,,0.00,WUHU216HW,2013-01-09 01:48:00,
2013-01-08 20:53:00,35.3,25.5,30.30,WSW,248,0.2,2.2,67,0.00,,,0.00,WUHU216HW,2013-01-09 01:53:00,
2013-01-08 20:58:00,35.3,25.5,30.30,WSW,248,0.7,1.6,67,0.00,,,0.00,WUHU216HW,2013-01-09 01:58:00,
2013-01-08 21:03:00,35.1,25.3,30.30,WSW,248,1.8,1.8,67,0.00,,,0.00,WUHU216HW,2013-01-09 02:03:00,
2013-01-08 21:08:00,35.1,25.3,30.31,WSW,248,0.9,2.9,67,0.00,,,0.00,WUHU216HW,2013-01-09 02:08:00,
2013-01-08 21:13:00,34.9,25.1,30.30,WSW,248,0.2,2.9,67,0.00,,,0.00,WUHU216HW,2013-01-09 02:13:00,
2013-01-08 21:19:00,34.9,25.1,30.31,West,270,0.9,1.8,67,0.00,,,0.00,WUHU216HW,2013-01-09 02:19:00,
2013-01-08 21:24:00,34.7,25.3,30.31,WSW,248,1.1,1.6,68,0.00,,,0.00,WUHU216HW,2013-01-09 02:24:00,
2013-01-08 21:29:00,34.5,25.1,30.31,WSW,248,0.9,1.6,68,0.00,,,0.00,WUHU216HW,2013-01-09 02:29:00,
2013-01-08 21:34:00,34.5,25.1,30.30,WSW,248,1.6,2.0,68,0.00,,,0.00,WUHU216HW,2013-01-09 02:34:00,
2013-01-08 21:39:00,34.4,25.0,30.30,WSW,248,0.2,2.0,68,0.00,,,0.00,WUHU216HW,2013-01-09 02:39:00,
2013-01-08 21:44:00,34.2,24.8,30.31,WSW,248,0.4,1.6,68,0.00,,,0.00,WUHU216HW,2013-01-09 02:44:00,
2013-01-08 21:49:00,34.2,24.8,30.31,WSW,248,0.4,1.3,68,0.00,,,0.00,WUHU216HW,2013-01-09 02:49:00,
2013-01-08 21:54:00,34.0,24.6,30.31,SW,225,0.0,1.1,68,0.00,,,0.00,WUHU216HW,2013-01-09 02:54:00,
2013-01-08 21:59:00,33.8,24.4,30.30,SW,225,0.0,0.7,68,0.00,,,0.00,WUHU216HW,2013-01-09 02:59:00,
2013-01-08 22:04:00,33.6,24.6,30.30,SW,225,0.2,0.9,69,0.00,,,0.00,WUHU216HW,2013-01-09 03:04:00,
2013-01-08 22:09:00,33.5,24.5,30.31,SSW,203,0.9,0.9,69,0.00,,,0.00,WUHU216HW,2013-01-09 03:09:00,
2013-01-08 22:14:00,33.3,24.3,30.31,SW,225,0.0,1.1,69,0.00,,,0.00,WUHU216HW,2013-01-09 03:14:00,
2013-01-08 22:19:00,33.1,24.1,30.31,WSW,248,0.0,1.1,69,0.00,,,0.00,WUHU216HW,2013-01-09 03:19:00,
2013-01-08 22:24:00,32.9,23.9,30.31,SSW,203,0.9,1.1,69,0.00,,,0.00,WUHU216HW,2013-01-09 03:24:00,
2013-01-08 22:29:00,32.9,23.9,30.31,SSW,203,0.4,1.3,69,0.00,,,0.00,WUHU216HW,2013-01-09 03:29:00,
2013-01-08 22:35:00,32.6,24.0,30.31,SSW,203,0.9,1.3,70,0.00,,,0.00,WUHU216HW,2013-01-09 03:35:00,
2013-01-08 22:40:00,32.6,24.0,30.31,SW,225,0.4,1.1,70,0.00,,,0.00,WUHU216HW,2013-01-09 03:40:00,
2013-01-08 22:45:00,32.4,23.8,30.32,South,180,0.9,1.1,70,0.00,,,0.00,WUHU216HW,2013-01-09 03:45:00,
2013-01-08 22:50:00,32.2,23.2,30.31,South,180,0.4,1.1,69,0.00,,,0.00,WUHU216HW,2013-01-09 03:50:00,
2013-01-08 22:55:00,32.0,23.0,30.31,SSE,158,1.1,1.1,69,0.00,,,0.00,WUHU216HW,2013-01-09 03:55:00,
2013-01-08 23:00:00,31.8,23.2,30.31,SW,225,0.4,1.3,70,0.00,,,0.00,WUHU216HW,2013-01-09 04:00:00,
2013-01-08 23:05:00,31.7,23.1,30.31,South,180,0.4,1.3,70,0.00,,,0.00,WUHU216HW,2013-01-09 04:05:00,
2013-01-08 23:10:00,31.7,23.1,30.32,SSW,203,0.2,1.1,70,0.00,,,0.00,WUHU216HW,2013-01-09 04:10:00,
2013-01-08 23:15:00,31.5,22.9,30.31,SSE,158,0.9,1.1,70,0.00,,,0.00,WUHU216HW,2013-01-09 04:15:00,
2013-01-08 23:20:00,31.5,22.9,30.31,SSE,158,0.0,1.1,70,0.00,,,0.00,WUHU216HW,2013-01-09 04:20:00,
2013-01-08 23:25:00,31.3,22.7,30.31,SSW,203,0.0,0.9,70,0.00,,,0.00,WUHU216HW,2013-01-09 04:25:00,
2013-01-08 23:30:00,31.3,22.7,30.31,SSW,203,0.0,0.2,70,0.00,,,0.00,WUHU216HW,2013-01-09 04:30:00,
2013-01-08 23:35:00,31.1,22.5,30.31,SSW,203,0.0,0.0,70,0.00,,,0.00,WUHU216HW,2013-01-09 04:35:00,
2013-01-08 23:40:00,31.1,22.5,30.31,SSE,158,0.4,0.9,70,0.00,,,0.00,WUHU216HW,2013-01-09 04:40:00,
2013-01-08 23:45:00,30.9,22.7,30.30,SSW,203,1.1,1.1,71,0.00,,,0.00,WUHU216HW,2013-01-09 04:45:00,
2013-01-08 23:51:00,30.8,22.6,30.31,SSE,158,1.3,1.3,71,0.00,,,0.00,WUHU216HW,2013-01-09 04:51:00,
2013-01-08 23:56:00,30.8,22.6,30.31,SE,135,0.7,1.3,71,0.00,,,0.00,WUHU216HW,2013-01-09 04:56:00,